Terminal Aerodrome Forecast
Issued by NWS Twin Cities, MN

Home | Current Version | Previous Version | Text Only | Print | Product List | Glossary On
Versions: 1 2 3 4 5 6 7 8 9 10 11 12 13 14 15 16 17 18 19 20 21
327
FTUS43 KMPX 241135
TAFSTC
TAF
KSTC 241135Z 2412/2512 02015G25KT P6SM OVC100
     FM242000 34014G22KT P6SM SCT030 OVC180=

USA.gov is the U.S. government's official web portal to all federal, state and local government web resources and services.